Time;durP1;ratioP1;P1;durP2;ratioP2;P2;SDS_P1;SDS_P2;PMS_P1;PMS_P2;Temp;Humidity;BMP_temperature;BMP_pressure;BME280_temperature;BME280_humidity;BME280_pressure;Samples;Min_cycle;Max_cycle;Signal;HPM_P1;HPM_P2
2023/08/01 00:00:49;;;;;;;27.80;5.28;;;;;;;;;;4990504;28;20038;-60
2023/08/01 00:03:17;;;;;;;23.40;4.75;;;;;;;;;;4986976;28;20037;-61
2023/08/01 00:05:44;;;;;;;26.10;5.07;;;;;;;;;;4989693;28;20502;-61
2023/08/01 00:08:12;;;;;;;28.40;4.95;;;;;;;;;;4993037;28;20034;-61
2023/08/01 00:10:40;;;;;;;24.65;4.90;;;;;;;;;;4992819;28;20116;-60
2023/08/01 00:13:07;;;;;;;25.70;4.57;;;;;;;;;;4991928;28;20037;-60
2023/08/01 00:15:34;;;;;;;38.78;5.72;;;;;;;;;;4982447;28;20038;-59
2023/08/01 00:18:01;;;;;;;28.67;4.45;;;;;;;;;;4992610;28;20034;-59
2023/08/01 00:20:28;;;;;;;28.48;4.57;;;;;;;;;;4989717;28;20030;-51
2023/08/01 00:22:55;;;;;;;25.63;4.65;;;;;;;;;;4982632;28;20109;-50
2023/08/01 00:25:22;;;;;;;18.00;4.70;;;;;;;;;;4989371;28;20042;-47
2023/08/01 00:27:51;;;;;;;29.40;6.03;;;;;;;;;;4981137;28;20370;-50
2023/08/01 00:30:18;;;;;;;34.85;5.88;;;;;;;;;;4992803;28;20092;-53
2023/08/01 00:32:45;;;;;;;27.08;6.18;;;;;;;;;;4989141;28;20142;-54
2023/08/01 00:35:12;;;;;;;28.77;6.93;;;;;;;;;;4979518;28;20128;-50
2023/08/01 00:37:39;;;;;;;48.03;9.90;;;;;;;;;;4989902;28;20459;-52
2023/08/01 00:40:06;;;;;;;54.28;11.45;;;;;;;;;;4992422;28;20490;-51
2023/08/01 00:42:37;;;;;;;56.28;12.70;;;;;;;;;;4979411;28;20485;-50
2023/08/01 00:45:05;;;;;;;58.83;14.65;;;;;;;;;;4991529;28;20049;-51
2023/08/01 00:47:32;;;;;;;59.78;14.85;;;;;;;;;;4991597;28;20040;-51
2023/08/01 00:49:59;;;;;;;65.38;16.45;;;;;;;;;;4983112;28;20066;-49
2023/08/01 00:52:26;;;;;;;60.10;16.10;;;;;;;;;;4988695;28;20061;-50
2023/08/01 00:54:53;;;;;;;71.03;17.42;;;;;;;;;;4992594;28;20081;-50
2023/08/01 00:57:20;;;;;;;62.05;16.88;;;;;;;;;;4988828;28;20027;-49
2023/08/01 00:59:47;;;;;;;57.35;14.95;;;;;;;;;;4983166;28;20069;-49
2023/08/01 01:02:14;;;;;;;58.20;15.05;;;;;;;;;;4992123;28;20543;-53
2023/08/01 01:04:41;;;;;;;57.15;15.55;;;;;;;;;;4987377;28;20078;-50
2023/08/01 01:07:09;;;;;;;54.40;15.07;;;;;;;;;;4972920;28;20053;-50
2023/08/01 01:09:36;;;;;;;53.70;14.55;;;;;;;;;;4972871;28;20042;-51
2023/08/01 01:12:04;;;;;;;60.35;16.02;;;;;;;;;;4972990;28;20389;-50
2023/08/01 01:14:31;;;;;;;60.20;14.30;;;;;;;;;;4991693;28;20466;-50
2023/08/01 01:16:59;;;;;;;54.30;13.70;;;;;;;;;;4992237;28;20117;-49
2023/08/01 01:19:26;;;;;;;44.30;13.13;;;;;;;;;;4978378;28;20182;-51
2023/08/01 01:21:53;;;;;;;43.65;12.20;;;;;;;;;;4983728;28;20483;-52
2023/08/01 01:24:22;;;;;;;46.97;12.65;;;;;;;;;;4973339;28;20041;-53
2023/08/01 01:26:50;;;;;;;46.20;11.93;;;;;;;;;;4986241;28;20141;-54
2023/08/01 01:29:17;;;;;;;39.75;11.48;;;;;;;;;;4978494;28;20114;-54
2023/08/01 01:31:44;;;;;;;40.80;11.60;;;;;;;;;;4990358;28;20563;-51
2023/08/01 01:34:11;;;;;;;36.30;11.13;;;;;;;;;;4992069;28;20034;-51
2023/08/01 01:36:38;;;;;;;45.47;10.95;;;;;;;;;;4991314;28;20109;-55
2023/08/01 01:39:05;;;;;;;35.25;10.73;;;;;;;;;;4991681;28;20034;-53
2023/08/01 01:41:33;;;;;;;34.60;10.23;;;;;;;;;;4991158;28;20026;-51
2023/08/01 01:44:00;;;;;;;39.95;10.55;;;;;;;;;;4990965;28;20046;-54
2023/08/01 01:46:27;;;;;;;34.42;10.20;;;;;;;;;;4991020;28;20041;-52
2023/08/01 01:48:54;;;;;;;33.03;9.75;;;;;;;;;;4990491;28;20019;-52
2023/08/01 01:51:22;;;;;;;32.90;9.43;;;;;;;;;;4990939;28;20507;-54
2023/08/01 01:53:49;;;;;;;29.58;9.25;;;;;;;;;;4973390;28;20392;-52
2023/08/01 01:56:16;;;;;;;26.83;8.68;;;;;;;;;;4991102;28;20027;-50
2023/08/01 01:58:43;;;;;;;25.23;8.50;;;;;;;;;;4991590;28;20026;-51
2023/08/01 02:01:10;;;;;;;23.55;8.50;;;;;;;;;;4974543;28;20062;-50
2023/08/01 02:03:37;;;;;;;25.75;8.80;;;;;;;;;;4992088;28;20041;-50
2023/08/01 02:06:04;;;;;;;25.45;8.73;;;;;;;;;;4992088;28;20081;-51
2023/08/01 02:08:31;;;;;;;24.75;8.45;;;;;;;;;;4991976;28;20081;-53
2023/08/01 02:10:58;;;;;;;25.65;8.18;;;;;;;;;;4992101;28;20029;-50
2023/08/01 02:13:27;;;;;;;25.40;8.13;;;;;;;;;;4992123;28;20022;-51
2023/08/01 02:15:54;;;;;;;25.55;7.82;;;;;;;;;;4992011;28;20031;-50
2023/08/01 02:18:22;;;;;;;26.35;8.50;;;;;;;;;;4991932;28;20532;-52
2023/08/01 02:20:49;;;;;;;23.55;8.25;;;;;;;;;;4992069;28;20547;-53
2023/08/01 02:23:16;;;;;;;19.70;7.43;;;;;;;;;;4992093;28;20033;-52
2023/08/01 02:25:43;;;;;;;24.60;8.05;;;;;;;;;;4991751;28;20455;-51
2023/08/01 02:28:10;;;;;;;22.42;8.07;;;;;;;;;;4991800;28;20030;-51
2023/08/01 02:30:37;;;;;;;21.77;7.13;;;;;;;;;;4991958;28;20092;-51
2023/08/01 02:33:04;;;;;;;24.55;7.30;;;;;;;;;;4991756;28;20046;-50
2023/08/01 02:35:31;;;;;;;26.30;7.53;;;;;;;;;;4974273;28;20113;-50
2023/08/01 02:37:58;;;;;;;18.95;6.63;;;;;;;;;;4991611;28;20038;-51
2023/08/01 02:40:27;;;;;;;25.52;7.05;;;;;;;;;;4991866;28;20030;-50
2023/08/01 02:42:54;;;;;;;18.80;6.60;;;;;;;;;;4991513;28;20389;-51
2023/08/01 02:45:21;;;;;;;20.17;7.03;;;;;;;;;;4991683;28;20041;-50
2023/08/01 02:47:48;;;;;;;17.02;6.30;;;;;;;;;;4991631;28;20053;-52
2023/08/01 02:50:15;;;;;;;20.83;6.47;;;;;;;;;;4993989;28;20038;-50
2023/08/01 02:52:42;;;;;;;17.38;6.28;;;;;;;;;;4995262;28;20488;-51
2023/08/01 02:55:09;;;;;;;14.98;5.95;;;;;;;;;;4995184;28;20022;-52
2023/08/01 02:57:37;;;;;;;18.33;6.22;;;;;;;;;;4995019;28;20361;-51
2023/08/01 03:00:05;;;;;;;13.00;5.78;;;;;;;;;;4995028;28;20026;-50
2023/08/01 03:02:33;;;;;;;16.95;6.10;;;;;;;;;;4994853;28;20030;-53
2023/08/01 03:05:00;;;;;;;19.23;5.90;;;;;;;;;;4994900;28;20034;-51
2023/08/01 03:07:30;;;;;;;16.38;6.05;;;;;;;;;;4994866;28;20058;-53
2023/08/01 03:09:57;;;;;;;14.20;6.05;;;;;;;;;;4994877;28;20030;-54
2023/08/01 03:12:24;;;;;;;13.00;5.68;;;;;;;;;;4994828;28;20075;-51
2023/08/01 03:14:51;;;;;;;16.83;6.35;;;;;;;;;;4977228;28;20019;-54
2023/08/01 03:17:18;;;;;;;19.50;6.32;;;;;;;;;;4994557;28;20034;-50
2023/08/01 03:19:45;;;;;;;14.90;6.00;;;;;;;;;;4994755;28;20543;-55
2023/08/01 03:22:12;;;;;;;15.15;5.63;;;;;;;;;;4994685;28;20056;-53
2023/08/01 03:24:39;;;;;;;13.48;4.90;;;;;;;;;;4994676;28;20065;-50
2023/08/01 03:27:06;;;;;;;16.85;5.55;;;;;;;;;;4994484;28;20450;-51
2023/08/01 03:29:33;;;;;;;15.13;5.07;;;;;;;;;;4994578;28;20026;-55
2023/08/01 03:32:00;;;;;;;13.32;4.72;;;;;;;;;;4994305;28;20077;-50
2023/08/01 03:34:27;;;;;;;13.15;5.10;;;;;;;;;;4994443;28;20030;-51
2023/08/01 03:36:54;;;;;;;15.95;5.22;;;;;;;;;;4994355;28;20034;-51
2023/08/01 03:39:21;;;;;;;15.75;4.85;;;;;;;;;;4994394;28;20085;-50
2023/08/01 03:41:48;;;;;;;15.35;5.30;;;;;;;;;;4994136;28;20035;-52
2023/08/01 03:44:16;;;;;;;12.55;4.63;;;;;;;;;;4994302;28;20046;-51
2023/08/01 03:46:44;;;;;;;10.68;4.55;;;;;;;;;;4993839;28;20038;-51
2023/08/01 03:49:11;;;;;;;12.73;4.40;;;;;;;;;;4994144;28;20037;-50
2023/08/01 03:51:38;;;;;;;14.52;4.78;;;;;;;;;;4994187;28;20041;-52
2023/08/01 03:54:05;;;;;;;12.98;4.63;;;;;;;;;;4994120;28;20022;-51
2023/08/01 03:56:33;;;;;;;11.25;4.35;;;;;;;;;;4993673;28;20496;-50
2023/08/01 03:59:00;;;;;;;12.52;4.80;;;;;;;;;;4993950;28;20045;-51
2023/08/01 04:01:26;;;;;;;14.13;4.72;;;;;;;;;;4979288;28;20062;-50
2023/08/01 04:03:53;;;;;;;13.15;4.50;;;;;;;;;;4974356;28;20031;-51
2023/08/01 04:06:20;;;;;;;11.38;4.63;;;;;;;;;;4974273;28;20501;-51
2023/08/01 04:08:47;;;;;;;11.93;4.25;;;;;;;;;;4974169;28;20122;-50
2023/08/01 04:11:14;;;;;;;9.40;4.20;;;;;;;;;;4974333;28;20023;-51
2023/08/01 04:13:41;;;;;;;9.73;3.95;;;;;;;;;;4974203;28;20478;-52
2023/08/01 04:16:08;;;;;;;10.23;4.50;;;;;;;;;;4974261;28;20096;-50
2023/08/01 04:18:35;;;;;;;9.65;4.20;;;;;;;;;;4974102;28;20034;-52
2023/08/01 04:21:03;;;;;;;11.65;4.43;;;;;;;;;;4956768;28;20046;-51
2023/08/01 04:23:30;;;;;;;8.75;3.92;;;;;;;;;;4974069;28;20041;-51
2023/08/01 04:25:58;;;;;;;9.02;3.90;;;;;;;;;;4973901;28;20027;-51
2023/08/01 04:28:25;;;;;;;9.40;4.38;;;;;;;;;;4973836;28;20081;-50
2023/08/01 04:30:53;;;;;;;7.00;3.80;;;;;;;;;;4973925;28;20085;-52
2023/08/01 04:33:20;;;;;;;12.15;4.75;;;;;;;;;;4973720;28;20070;-53
2023/08/01 04:35:49;;;;;;;8.02;3.97;;;;;;;;;;4973838;28;20089;-52
2023/08/01 04:38:16;;;;;;;13.52;4.15;;;;;;;;;;4973537;28;20062;-50
2023/08/01 04:40:43;;;;;;;7.13;3.80;;;;;;;;;;4973749;28;20104;-53
2023/08/01 04:43:10;;;;;;;11.50;3.72;;;;;;;;;;4973723;28;20037;-55
2023/08/01 04:45:37;;;;;;;11.18;4.15;;;;;;;;;;4956150;28;20409;-50
2023/08/01 04:48:04;;;;;;;10.18;4.10;;;;;;;;;;4973462;28;20102;-51
2023/08/01 04:50:31;;;;;;;9.60;3.80;;;;;;;;;;4973554;28;20409;-53
2023/08/01 04:52:58;;;;;;;9.18;3.95;;;;;;;;;;4973406;28;20031;-50
2023/08/01 04:55:25;;;;;;;10.32;3.53;;;;;;;;;;4973489;28;20034;-51
2023/08/01 04:57:52;;;;;;;9.88;3.72;;;;;;;;;;4973393;28;20054;-56
2023/08/01 05:00:19;;;;;;;9.02;3.53;;;;;;;;;;4993006;28;20034;-50
2023/08/01 05:02:46;;;;;;;7.70;3.90;;;;;;;;;;4992645;28;20022;-52
2023/08/01 05:05:13;;;;;;;10.43;3.90;;;;;;;;;;4992698;28;20045;-53
2023/08/01 05:07:40;;;;;;;6.43;3.50;;;;;;;;;;4992668;28;20530;-50
2023/08/01 05:10:07;;;;;;;6.50;3.55;;;;;;;;;;4992651;28;20088;-53
2023/08/01 05:12:34;;;;;;;8.40;3.72;;;;;;;;;;4991913;28;20042;-51
2023/08/01 05:15:02;;;;;;;7.07;3.42;;;;;;;;;;4992455;28;20031;-50
2023/08/01 05:17:29;;;;;;;9.90;3.30;;;;;;;;;;4992428;28;20109;-53
2023/08/01 05:19:56;;;;;;;7.90;3.58;;;;;;;;;;4992437;28;20460;-53
2023/08/01 05:22:23;;;;;;;6.05;3.08;;;;;;;;;;4992512;28;20026;-51
2023/08/01 05:24:50;;;;;;;9.52;3.53;;;;;;;;;;4992452;28;20034;-52
2023/08/01 05:27:17;;;;;;;8.73;3.63;;;;;;;;;;4991887;28;20568;-51
2023/08/01 05:29:44;;;;;;;7.55;3.25;;;;;;;;;;4992385;28;20026;-54
2023/08/01 05:32:11;;;;;;;9.05;3.53;;;;;;;;;;4992135;28;20451;-50
2023/08/01 05:34:38;;;;;;;8.32;3.42;;;;;;;;;;4992437;28;20038;-51
2023/08/01 05:37:05;;;;;;;8.25;3.40;;;;;;;;;;4992282;28;20487;-51
2023/08/01 05:39:32;;;;;;;5.97;2.85;;;;;;;;;;4992313;28;20030;-53
2023/08/01 05:41:59;;;;;;;8.15;3.05;;;;;;;;;;4992309;28;20026;-52
2023/08/01 05:44:26;;;;;;;6.78;3.20;;;;;;;;;;4992335;28;20042;-55
2023/08/01 05:46:53;;;;;;;6.47;3.38;;;;;;;;;;4991900;28;20397;-51
2023/08/01 05:49:20;;;;;;;7.93;3.15;;;;;;;;;;4992160;28;20512;-50
2023/08/01 05:51:47;;;;;;;7.72;3.00;;;;;;;;;;4992201;28;20039;-51
2023/08/01 05:54:14;;;;;;;5.60;2.88;;;;;;;;;;4991986;28;20042;-52
2023/08/01 05:56:41;;;;;;;8.70;3.30;;;;;;;;;;4992065;28;20056;-52
2023/08/01 05:59:08;;;;;;;7.13;3.00;;;;;;;;;;4992186;28;20019;-52
2023/08/01 06:01:35;;;;;;;6.60;3.00;;;;;;;;;;4990834;28;20504;-51
2023/08/01 06:04:02;;;;;;;6.80;3.20;;;;;;;;;;4992093;28;20030;-52
2023/08/01 06:06:29;;;;;;;7.22;3.20;;;;;;;;;;4991938;28;20457;-53
2023/08/01 06:08:56;;;;;;;7.32;3.20;;;;;;;;;;4991971;28;20546;-52
2023/08/01 06:11:23;;;;;;;6.50;2.97;;;;;;;;;;4991990;28;20501;-53
2023/08/01 06:13:50;;;;;;;8.00;2.85;;;;;;;;;;4992009;28;20042;-53
2023/08/01 06:16:17;;;;;;;6.15;3.08;;;;;;;;;;4991958;28;20033;-51
2023/08/01 06:18:44;;;;;;;5.57;2.80;;;;;;;;;;4991590;28;20073;-53
2023/08/01 06:21:11;;;;;;;8.48;2.80;;;;;;;;;;4991922;28;20030;-51
2023/08/01 06:23:38;;;;;;;6.30;2.65;;;;;;;;;;4993415;28;20501;-55
2023/08/01 06:26:05;;;;;;;6.78;3.05;;;;;;;;;;4995745;28;20046;-51
2023/08/01 06:28:32;;;;;;;7.80;3.47;;;;;;;;;;4995542;28;20026;-51
2023/08/01 06:30:59;;;;;;;7.32;3.00;;;;;;;;;;4995635;28;20105;-51
2023/08/01 06:33:26;;;;;;;4.65;2.65;;;;;;;;;;4995089;28;20520;-52
2023/08/01 06:35:53;;;;;;;7.40;2.80;;;;;;;;;;4995511;28;20061;-54
2023/08/01 06:38:20;;;;;;;7.20;3.03;;;;;;;;;;4995266;28;20451;-53
2023/08/01 06:40:47;;;;;;;6.07;2.60;;;;;;;;;;4977889;28;20034;-51
2023/08/01 06:43:14;;;;;;;6.78;2.92;;;;;;;;;;4995435;28;20034;-53
2023/08/01 06:45:41;;;;;;;6.13;2.60;;;;;;;;;;4995237;28;20480;-51
2023/08/01 06:48:08;;;;;;;7.80;3.10;;;;;;;;;;4995236;28;20034;-53
2023/08/01 06:50:35;;;;;;;6.80;2.50;;;;;;;;;;4995311;28;20023;-52
2023/08/01 06:53:03;;;;;;;4.32;2.58;;;;;;;;;;4995245;28;20035;-54
2023/08/01 06:55:29;;;;;;;3.90;2.50;;;;;;;;;;4994975;28;20056;-51
2023/08/01 06:57:56;;;;;;;6.80;2.70;;;;;;;;;;4995141;28;20432;-55
2023/08/01 07:00:23;;;;;;;6.95;2.70;;;;;;;;;;4994998;28;20404;-53
2023/08/01 07:02:50;;;;;;;4.68;2.67;;;;;;;;;;4995009;28;20037;-54
2023/08/01 07:05:17;;;;;;;5.88;2.80;;;;;;;;;;4995025;28;20102;-53
2023/08/01 07:07:44;;;;;;;6.57;3.05;;;;;;;;;;4994915;28;20034;-52
2023/08/01 07:10:12;;;;;;;4.22;2.67;;;;;;;;;;4994896;28;20157;-51
2023/08/01 07:12:38;;;;;;;6.95;2.50;;;;;;;;;;4994906;28;20042;-51
2023/08/01 07:15:06;;;;;;;9.07;3.10;;;;;;;;;;4994762;28;20031;-52
2023/08/01 07:17:33;;;;;;;5.00;2.47;;;;;;;;;;4994675;28;20530;-51
2023/08/01 07:20:00;;;;;;;4.38;2.50;;;;;;;;;;4994719;28;20026;-51
2023/08/01 07:22:27;;;;;;;4.88;2.28;;;;;;;;;;4994756;28;20684;-51
2023/08/01 07:24:54;;;;;;;3.90;2.53;;;;;;;;;;4994655;28;20034;-51
2023/08/01 07:27:22;;;;;;;5.13;2.67;;;;;;;;;;4994444;28;20479;-54
2023/08/01 07:29:49;;;;;;;5.47;2.70;;;;;;;;;;4994600;28;20023;-54
2023/08/01 07:32:16;;;;;;;5.47;2.10;;;;;;;;;;4994344;28;20049;-54
2023/08/01 07:34:43;;;;;;;5.13;2.58;;;;;;;;;;4993689;28;20023;-55
2023/08/01 07:37:10;;;;;;;5.25;2.25;;;;;;;;;;4994385;28;20038;-56
2023/08/01 07:39:37;;;;;;;6.38;2.70;;;;;;;;;;4994284;28;20435;-54
2023/08/01 07:42:04;;;;;;;4.72;2.50;;;;;;;;;;4994345;28;20038;-55
2023/08/01 07:44:32;;;;;;;3.97;2.42;;;;;;;;;;4994178;28;20194;-56
2023/08/01 07:46:59;;;;;;;5.15;2.40;;;;;;;;;;4994119;28;20497;-54
2023/08/01 07:49:26;;;;;;;5.07;2.08;;;;;;;;;;4994242;28;20022;-56
2023/08/01 07:51:53;;;;;;;7.45;2.70;;;;;;;;;;4993910;28;20404;-54
2023/08/01 07:54:20;;;;;;;5.10;1.98;;;;;;;;;;4994106;28;20027;-55
2023/08/01 07:56:48;;;;;;;6.35;2.92;;;;;;;;;;4993974;28;20073;-55
2023/08/01 07:59:15;;;;;;;4.70;2.67;;;;;;;;;;4993827;28;20046;-55
2023/08/01 08:01:43;;;;;;;4.80;2.35;;;;;;;;;;4993959;28;20066;-55
2023/08/01 08:04:10;;;;;;;5.72;2.40;;;;;;;;;;4993895;28;20034;-53
2023/08/01 08:06:37;;;;;;;4.00;2.38;;;;;;;;;;4993750;28;20050;-55
2023/08/01 08:09:04;;;;;;;5.50;2.78;;;;;;;;;;4993813;28;20061;-55
2023/08/01 08:11:31;;;;;;;6.75;2.60;;;;;;;;;;4993801;28;20045;-54
2023/08/01 08:13:58;;;;;;;6.40;2.33;;;;;;;;;;4993769;28;20035;-55
2023/08/01 08:16:25;;;;;;;6.93;2.47;;;;;;;;;;4978473;28;20117;-54
2023/08/01 08:18:52;;;;;;;5.30;2.45;;;;;;;;;;4974178;28;20023;-55
2023/08/01 08:21:19;;;;;;;8.43;2.38;;;;;;;;;;4974215;28;20026;-54
2023/08/01 08:23:46;;;;;;;3.70;2.42;;;;;;;;;;4974067;28;20039;-55
2023/08/01 08:26:13;;;;;;;3.65;2.17;;;;;;;;;;4973830;28;20030;-54
2023/08/01 08:28:41;;;;;;;7.72;2.45;;;;;;;;;;4973974;28;20030;-54
2023/08/01 08:31:09;;;;;;;3.53;2.28;;;;;;;;;;4973859;28;20446;-55
2023/08/01 08:33:36;;;;;;;4.82;2.42;;;;;;;;;;4973836;28;20074;-55
2023/08/01 08:36:03;;;;;;;3.25;2.30;;;;;;;;;;4973822;28;20117;-53
2023/08/01 08:38:30;;;;;;;5.18;2.40;;;;;;;;;;4973833;28;20077;-54
2023/08/01 08:41:02;;;;;;;3.60;2.50;;;;;;;;;;4973854;28;20042;-54
2023/08/01 08:43:31;;;;;;;4.45;2.25;;;;;;;;;;4973686;28;20095;-54
2023/08/01 08:45:58;;;;;;;4.05;2.33;;;;;;;;;;4973443;28;20043;-54
2023/08/01 08:48:25;;;;;;;3.30;2.20;;;;;;;;;;4973646;28;20027;-53
2023/08/01 08:50:52;;;;;;;4.53;2.20;;;;;;;;;;4973632;28;20027;-54
2023/08/01 08:53:21;;;;;;;5.43;2.60;;;;;;;;;;4956256;28;20413;-54
2023/08/01 08:55:48;;;;;;;4.93;2.40;;;;;;;;;;4973465;28;20038;-53
2023/08/01 08:58:15;;;;;;;4.55;2.38;;;;;;;;;;4973429;28;20023;-53
2023/08/01 09:00:43;;;;;;;5.03;2.53;;;;;;;;;;4973431;28;20059;-53
2023/08/01 09:03:10;;;;;;;4.80;2.40;;;;;;;;;;4973351;28;20039;-53
2023/08/01 09:06:00;;;;;;;5.00;2.22;;;;;;;;;;4973280;28;20094;-55
2023/08/01 09:08:28;;;;;;;4.63;2.03;;;;;;;;;;4968191;28;20043;-55
2023/08/01 09:10:55;;;;;;;4.32;2.60;;;;;;;;;;4955810;28;20444;-52
2023/08/01 09:13:22;;;;;;;2.80;2.08;;;;;;;;;;4973186;28;20026;-52
2023/08/01 09:15:49;;;;;;;4.68;2.70;;;;;;;;;;4973188;28;20564;-53
2023/08/01 09:18:16;;;;;;;4.45;2.28;;;;;;;;;;4973047;28;20042;-52
2023/08/01 09:20:44;;;;;;;5.20;2.88;;;;;;;;;;4973122;28;20019;-53
2023/08/01 09:23:11;;;;;;;3.88;2.50;;;;;;;;;;4973118;28;20031;-52
2023/08/01 09:25:38;;;;;;;5.70;2.75;;;;;;;;;;4973000;28;20154;-51
2023/08/01 09:28:26;;;;;;;4.32;2.30;;;;;;;;;;4972990;28;20026;-52
2023/08/01 09:30:55;;;;;;;3.97;2.45;;;;;;;;;;4972539;28;20451;-56
2023/08/01 09:33:22;;;;;;;4.78;2.42;;;;;;;;;;4972771;28;20054;-53
2023/08/01 09:35:53;;;;;;;5.43;2.33;;;;;;;;;;4972922;28;20031;-52
2023/08/01 09:38:20;;;;;;;6.50;2.60;;;;;;;;;;4982792;28;20041;-56
2023/08/01 09:40:49;;;;;;;6.10;2.20;;;;;;;;;;4977769;28;20485;-51
2023/08/01 09:43:16;;;;;;;5.22;2.55;;;;;;;;;;4983659;28;20435;-55
2023/08/01 09:45:52;;;;;;;6.60;2.40;;;;;;;;;;4992195;28;20034;-51
2023/08/01 09:48:26;;;;;;;7.75;2.80;;;;;;;;;;4991991;28;20474;-51
2023/08/01 09:51:05;;;;;;;6.38;2.50;;;;;;;;;;4992078;28;20029;-51
2023/08/01 09:53:32;;;;;;;5.38;2.47;;;;;;;;;;4991843;28;20373;-52
2023/08/01 09:56:02;;;;;;;9.35;2.92;;;;;;;;;;4991972;28;20513;-51
2023/08/01 09:58:36;;;;;;;5.18;2.75;;;;;;;;;;4993478;28;20041;-51
2023/08/01 10:01:04;;;;;;;6.22;2.72;;;;;;;;;;4995798;28;20035;-51
2023/08/01 10:03:31;;;;;;;5.32;2.47;;;;;;;;;;4995419;28;20102;-53
2023/08/01 10:05:59;;;;;;;8.57;2.80;;;;;;;;;;4995217;28;20385;-52
2023/08/01 10:08:27;;;;;;;5.28;2.47;;;;;;;;;;4995285;28;20564;-53
2023/08/01 10:10:56;;;;;;;7.07;2.70;;;;;;;;;;4994453;28;20042;-54
2023/08/01 10:13:27;;;;;;;6.65;2.70;;;;;;;;;;4995524;28;20385;-53
2023/08/01 10:15:54;;;;;;;6.43;2.35;;;;;;;;;;4992826;28;20026;-54
2023/08/01 10:18:22;;;;;;;8.95;3.30;;;;;;;;;;4995709;28;20377;-50
2023/08/01 10:20:49;;;;;;;4.55;2.40;;;;;;;;;;4995167;28;20122;-52
2023/08/01 10:23:16;;;;;;;5.05;2.60;;;;;;;;;;4995163;28;20029;-52
2023/08/01 10:25:44;;;;;;;5.25;2.53;;;;;;;;;;4985759;28;20055;-51
2023/08/01 10:28:11;;;;;;;4.95;2.53;;;;;;;;;;4993806;28;20026;-51
2023/08/01 10:30:38;;;;;;;7.20;2.78;;;;;;;;;;4995153;28;20034;-51
2023/08/01 10:33:05;;;;;;;8.73;2.85;;;;;;;;;;4995027;28;20479;-50
2023/08/01 10:35:39;;;;;;;6.30;2.85;;;;;;;;;;4995341;28;20101;-50
2023/08/01 10:38:09;;;;;;;8.23;2.58;;;;;;;;;;4995009;28;20121;-52
2023/08/01 10:40:37;;;;;;;6.28;2.55;;;;;;;;;;4995001;28;20034;-55
2023/08/01 10:43:05;;;;;;;6.00;2.63;;;;;;;;;;4993842;28;20137;-54
2023/08/01 10:45:32;;;;;;;4.22;2.22;;;;;;;;;;4994871;28;20479;-51
2023/08/01 10:48:09;;;;;;;5.13;2.50;;;;;;;;;;4995034;28;20030;-52
2023/08/01 10:50:36;;;;;;;5.20;2.25;;;;;;;;;;4995104;28;20027;-50
2023/08/01 10:53:06;;;;;;;6.63;2.63;;;;;;;;;;4994744;28;20038;-54
2023/08/01 10:55:43;;;;;;;8.25;2.90;;;;;;;;;;4986054;28;20030;-50
2023/08/01 10:58:11;;;;;;;4.03;2.53;;;;;;;;;;4991969;28;20046;-50
2023/08/01 11:00:38;;;;;;;8.02;2.38;;;;;;;;;;4994947;28;20038;-53
2023/08/01 11:03:05;;;;;;;8.18;2.90;;;;;;;;;;4994530;28;20085;-52
2023/08/01 11:05:32;;;;;;;6.97;2.65;;;;;;;;;;4994785;28;20540;-50
2023/08/01 11:08:00;;;;;;;10.23;2.88;;;;;;;;;;4993205;28;20463;-53
2023/08/01 11:10:28;;;;;;;15.45;3.00;;;;;;;;;;4993071;28;20389;-50
2023/08/01 11:12:55;;;;;;;11.90;2.72;;;;;;;;;;4994490;28;20033;-53
2023/08/01 11:15:22;;;;;;;19.15;3.22;;;;;;;;;;4994369;28;20109;-60
2023/08/01 11:17:56;;;;;;;29.50;3.50;;;;;;;;;;4972170;28;20026;-50
2023/08/01 11:20:24;;;;;;;173.65;9.50;;;;;;;;;;4994015;28;20061;-51
2023/08/01 11:22:51;;;;;;;431.33;32.92;;;;;;;;;;4994323;28;20089;-53
2023/08/01 11:25:18;;;;;;;220.68;15.25;;;;;;;;;;4985136;28;20028;-54
2023/08/01 11:27:45;;;;;;;86.72;8.18;;;;;;;;;;4986196;28;20037;-51
2023/08/01 11:30:12;;;;;;;63.20;7.40;;;;;;;;;;4993231;28;20037;-51
2023/08/01 11:32:39;;;;;;;53.95;6.53;;;;;;;;;;4993839;28;20568;-49
2023/08/01 11:35:07;;;;;;;54.15;7.60;;;;;;;;;;4992376;28;20409;-51
2023/08/01 11:37:34;;;;;;;44.97;6.63;;;;;;;;;;4992014;28;20046;-48
2023/08/01 11:40:01;;;;;;;64.60;8.02;;;;;;;;;;4993585;28;20073;-48
2023/08/01 11:42:33;;;;;;;57.35;7.30;;;;;;;;;;4992465;28;20038;-53
2023/08/01 11:45:13;;;;;;;113.30;10.65;;;;;;;;;;4993025;28;20034;-51
2023/08/01 11:47:46;;;;;;;61.10;7.63;;;;;;;;;;4990399;28;20038;-57
2023/08/01 11:50:13;;;;;;;71.28;8.02;;;;;;;;;;4993541;28;20136;-49
2023/08/01 11:52:40;;;;;;;68.82;7.75;;;;;;;;;;4993186;28;20026;-51
2023/08/01 11:55:07;;;;;;;45.35;6.30;;;;;;;;;;4986699;28;20054;-52
2023/08/01 11:57:35;;;;;;;37.08;6.32;;;;;;;;;;4978234;28;20114;-50
2023/08/01 12:00:02;;;;;;;28.42;5.18;;;;;;;;;;4980496;28;20034;-51
2023/08/01 12:02:30;;;;;;;26.20;5.00;;;;;;;;;;4993154;28;20117;-48
2023/08/01 12:04:57;;;;;;;32.08;4.93;;;;;;;;;;4993446;28;20114;-48
2023/08/01 12:07:29;;;;;;;27.48;5.30;;;;;;;;;;4990231;28;20124;-50
2023/08/01 12:09:56;;;;;;;34.83;4.88;;;;;;;;;;4993045;28;20034;-51
2023/08/01 12:12:24;;;;;;;27.30;5.00;;;;;;;;;;4992986;28;20042;-51
2023/08/01 12:14:51;;;;;;;24.05;4.35;;;;;;;;;;4991786;28;20037;-52
2023/08/01 12:17:19;;;;;;;22.58;4.50;;;;;;;;;;4990935;28;20497;-56
2023/08/01 12:19:46;;;;;;;26.80;5.32;;;;;;;;;;4991894;28;20041;-52
2023/08/01 12:22:14;;;;;;;16.88;3.78;;;;;;;;;;4991961;28;20042;-50
2023/08/01 12:24:41;;;;;;;24.35;4.75;;;;;;;;;;4980202;28;20031;-52
2023/08/01 12:27:09;;;;;;;19.92;4.47;;;;;;;;;;4991456;28;20125;-51
2023/08/01 12:29:37;;;;;;;19.30;3.88;;;;;;;;;;4991401;28;20030;-52
2023/08/01 12:32:05;;;;;;;19.58;4.05;;;;;;;;;;4992503;28;20084;-51
2023/08/01 12:34:33;;;;;;;22.55;4.45;;;;;;;;;;4984753;28;20049;-52
2023/08/01 12:37:00;;;;;;;18.23;4.05;;;;;;;;;;4981343;28;20034;-54
2023/08/01 12:39:27;;;;;;;28.05;4.85;;;;;;;;;;4990002;28;20030;-52
2023/08/01 12:41:54;;;;;;;12.30;3.53;;;;;;;;;;4992791;28;20033;-50
2023/08/01 12:44:21;;;;;;;15.73;3.72;;;;;;;;;;4992312;28;20077;-51
2023/08/01 12:46:48;;;;;;;21.80;3.80;;;;;;;;;;4992588;28;20026;-50
2023/08/01 12:49:15;;;;;;;22.80;3.90;;;;;;;;;;4989855;28;20069;-56
2023/08/01 12:51:42;;;;;;;15.82;3.83;;;;;;;;;;4990948;28;20041;-49
2023/08/01 12:54:09;;;;;;;24.05;4.82;;;;;;;;;;4992346;28;20365;-53
2023/08/01 12:56:36;;;;;;;18.63;4.07;;;;;;;;;;4992321;28;20045;-52
2023/08/01 12:59:03;;;;;;;15.05;3.70;;;;;;;;;;4990978;28;20038;-57
2023/08/01 13:01:30;;;;;;;12.43;3.80;;;;;;;;;;4990763;28;20042;-52
2023/08/01 13:03:57;;;;;;;17.42;3.83;;;;;;;;;;4988323;28;20404;-53
2023/08/01 13:06:24;;;;;;;17.63;3.92;;;;;;;;;;4983936;28;20042;-55
2023/08/01 13:08:51;;;;;;;14.93;3.53;;;;;;;;;;4990732;28;20100;-53
2023/08/01 13:11:19;;;;;;;18.77;3.67;;;;;;;;;;4990668;28;20045;-51
2023/08/01 13:13:46;;;;;;;16.48;3.80;;;;;;;;;;4991798;28;20038;-54
2023/08/01 13:16:13;;;;;;;15.57;3.97;;;;;;;;;;4991977;28;20022;-49
2023/08/01 13:18:43;;;;;;;16.40;3.72;;;;;;;;;;4990653;28;20029;-52
2023/08/01 13:21:12;;;;;;;19.10;3.75;;;;;;;;;;4990049;28;20046;-52
2023/08/01 13:23:39;;;;;;;23.42;3.83;;;;;;;;;;4991353;28;20034;-54
2023/08/01 13:26:06;;;;;;;25.27;3.53;;;;;;;;;;4991712;28;20042;-55
2023/08/01 13:28:32;;;;;;;16.02;3.72;;;;;;;;;;4990118;28;20030;-51
2023/08/01 13:30:59;;;;;;;12.48;3.65;;;;;;;;;;4991835;28;20124;-54
2023/08/01 13:33:26;;;;;;;15.13;3.83;;;;;;;;;;4986500;28;20042;-52
2023/08/01 13:35:54;;;;;;;19.15;4.22;;;;;;;;;;4981883;28;20026;-50
2023/08/01 13:38:21;;;;;;;13.23;3.58;;;;;;;;;;4979684;28;20023;-51
2023/08/01 13:40:48;;;;;;;19.70;3.90;;;;;;;;;;4971911;28;20393;-50
2023/08/01 13:43:15;;;;;;;16.67;4.55;;;;;;;;;;4970869;28;20034;-51
2023/08/01 13:45:42;;;;;;;24.33;4.07;;;;;;;;;;4971720;28;20122;-51
2023/08/01 13:48:09;;;;;;;15.40;3.28;;;;;;;;;;4977253;28;20070;-54
2023/08/01 13:50:36;;;;;;;19.10;3.80;;;;;;;;;;4978445;28;20030;-51
2023/08/01 13:53:03;;;;;;;20.08;4.10;;;;;;;;;;4978187;28;20056;-51
2023/08/01 13:55:30;;;;;;;21.60;4.60;;;;;;;;;;4991610;28;20046;-50
2023/08/01 13:57:57;;;;;;;29.20;4.85;;;;;;;;;;4981295;28;20041;-52
2023/08/01 14:00:24;;;;;;;21.15;4.00;;;;;;;;;;4988940;28;20022;-52
2023/08/01 14:02:51;;;;;;;18.75;5.03;;;;;;;;;;4991518;28;20440;-51
2023/08/01 14:05:18;;;;;;;20.58;4.22;;;;;;;;;;4983213;28;20035;-53
2023/08/01 14:07:45;;;;;;;21.95;4.68;;;;;;;;;;4983025;28;20074;-52
2023/08/01 14:10:14;;;;;;;22.02;4.88;;;;;;;;;;4991260;28;20038;-51
2023/08/01 14:12:41;;;;;;;22.10;4.38;;;;;;;;;;4991524;28;20038;-51
2023/08/01 14:15:09;;;;;;;20.13;4.40;;;;;;;;;;4991526;28;20177;-51
2023/08/01 14:17:36;;;;;;;24.50;4.32;;;;;;;;;;4974224;28;20081;-50
2023/08/01 14:20:07;;;;;;;20.20;4.30;;;;;;;;;;4991191;28;20030;-52
2023/08/01 14:22:34;;;;;;;14.00;3.80;;;;;;;;;;4991418;28;20117;-52
2023/08/01 14:25:01;;;;;;;15.40;4.03;;;;;;;;;;4991205;28;20037;-51
2023/08/01 14:27:28;;;;;;;21.23;4.15;;;;;;;;;;4991442;28;20062;-52
2023/08/01 14:29:55;;;;;;;24.15;4.20;;;;;;;;;;4975591;28;20089;-50
2023/08/01 14:32:22;;;;;;;25.38;4.50;;;;;;;;;;4971853;28;20045;-53
2023/08/01 14:34:49;;;;;;;23.42;4.70;;;;;;;;;;4977039;28;20441;-53